sensor_id;sensor_type;location;lat;lon;timestamp;temperature;humidity
43015;DHT22;28637;50.554;7.032;2023-05-24T00:01:03;9.90;99.90
43015;DHT22;28637;50.554;7.032;2023-05-24T00:06:04;9.90;99.90
43015;DHT22;28637;50.554;7.032;2023-05-24T00:11:06;9.90;99.90
43015;DHT22;28637;50.554;7.032;2023-05-24T00:16:07;9.80;99.90
43015;DHT22;28637;50.554;7.032;2023-05-24T00:21:07;9.80;99.90
43015;DHT22;28637;50.554;7.032;2023-05-24T00:26:09;9.70;99.90
43015;DHT22;28637;50.554;7.032;2023-05-24T00:31:09;9.70;99.90
43015;DHT22;28637;50.554;7.032;2023-05-24T00:36:10;9.60;99.90
43015;DHT22;28637;50.554;7.032;2023-05-24T00:41:10;9.40;99.90
43015;DHT22;28637;50.554;7.032;2023-05-24T00:46:28;9.40;99.90
43015;DHT22;28637;50.554;7.032;2023-05-24T00:51:29;9.30;99.90
43015;DHT22;28637;50.554;7.032;2023-05-24T00:56:31;9.10;99.90
43015;DHT22;28637;50.554;7.032;2023-05-24T01:01:32;9.10;99.90
43015;DHT22;28637;50.554;7.032;2023-05-24T01:06:41;9.00;99.90
43015;DHT22;28637;50.554;7.032;2023-05-24T01:17:20;8.80;99.90
43015;DHT22;28637;50.554;7.032;2023-05-24T01:27:49;8.60;99.90
43015;DHT22;28637;50.554;7.032;2023-05-24T01:32:50;8.60;99.90
43015;DHT22;28637;50.554;7.032;2023-05-24T01:37:51;8.50;99.90
43015;DHT22;28637;50.554;7.032;2023-05-24T01:43:02;8.50;99.90
43015;DHT22;28637;50.554;7.032;2023-05-24T01:48:07;8.50;99.90
43015;DHT22;28637;50.554;7.032;2023-05-24T01:53:19;8.30;99.90
43015;DHT22;28637;50.554;7.032;2023-05-24T01:58:22;8.20;99.90
43015;DHT22;28637;50.554;7.032;2023-05-24T02:03:23;8.10;99.90
43015;DHT22;28637;50.554;7.032;2023-05-24T02:08:23;8.00;99.90
43015;DHT22;28637;50.554;7.032;2023-05-24T02:13:24;7.90;99.90
43015;DHT22;28637;50.554;7.032;2023-05-24T02:18:24;7.80;99.90
43015;DHT22;28637;50.554;7.032;2023-05-24T02:23:25;7.80;99.90
43015;DHT22;28637;50.554;7.032;2023-05-24T02:28:27;7.80;99.90
43015;DHT22;28637;50.554;7.032;2023-05-24T02:33:29;7.70;99.90
43015;DHT22;28637;50.554;7.032;2023-05-24T02:38:29;7.60;99.90
43015;DHT22;28637;50.554;7.032;2023-05-24T02:43:31;7.50;99.90
43015;DHT22;28637;50.554;7.032;2023-05-24T02:48:31;7.30;99.90
43015;DHT22;28637;50.554;7.032;2023-05-24T02:53:32;7.20;99.90
43015;DHT22;28637;50.554;7.032;2023-05-24T02:58:33;7.20;99.90
43015;DHT22;28637;50.554;7.032;2023-05-24T03:03:34;7.00;99.90
43015;DHT22;28637;50.554;7.032;2023-05-24T03:08:35;6.90;99.90
43015;DHT22;28637;50.554;7.032;2023-05-24T03:13:36;6.90;99.90
43015;DHT22;28637;50.554;7.032;2023-05-24T03:18:37;6.80;99.90
43015;DHT22;28637;50.554;7.032;2023-05-24T03:23:38;6.70;99.90
43015;DHT22;28637;50.554;7.032;2023-05-24T03:28:39;6.60;99.90
43015;DHT22;28637;50.554;7.032;2023-05-24T03:33:40;6.50;99.90
43015;DHT22;28637;50.554;7.032;2023-05-24T03:38:40;6.40;99.90
43015;DHT22;28637;50.554;7.032;2023-05-24T03:43:41;6.20;99.90
43015;DHT22;28637;50.554;7.032;2023-05-24T03:48:41;6.10;99.90
43015;DHT22;28637;50.554;7.032;2023-05-24T03:53:42;6.10;99.90
43015;DHT22;28637;50.554;7.032;2023-05-24T03:58:43;6.20;99.90
43015;DHT22;28637;50.554;7.032;2023-05-24T04:03:43;6.20;99.90
43015;DHT22;28637;50.554;7.032;2023-05-24T04:08:45;6.20;99.90
43015;DHT22;28637;50.554;7.032;2023-05-24T04:13:47;6.30;99.90
43015;DHT22;28637;50.554;7.032;2023-05-24T04:18:47;6.40;99.90
43015;DHT22;28637;50.554;7.032;2023-05-24T04:23:48;6.30;99.90
43015;DHT22;28637;50.554;7.032;2023-05-24T04:28:49;6.40;99.90
43015;DHT22;28637;50.554;7.032;2023-05-24T04:33:49;6.40;99.90
43015;DHT22;28637;50.554;7.032;2023-05-24T04:38:50;6.50;99.90
43015;DHT22;28637;50.554;7.032;2023-05-24T04:43:53;6.60;99.90
43015;DHT22;28637;50.554;7.032;2023-05-24T04:48:53;6.70;99.90
43015;DHT22;28637;50.554;7.032;2023-05-24T04:53:54;7.00;99.90
43015;DHT22;28637;50.554;7.032;2023-05-24T04:58:55;7.20;99.90
43015;DHT22;28637;50.554;7.032;2023-05-24T05:03:55;7.30;99.90
43015;DHT22;28637;50.554;7.032;2023-05-24T05:08:56;7.50;99.90
43015;DHT22;28637;50.554;7.032;2023-05-24T05:13:56;7.80;99.90
43015;DHT22;28637;50.554;7.032;2023-05-24T05:18:57;8.00;99.90
43015;DHT22;28637;50.554;7.032;2023-05-24T05:23:59;8.40;99.90
43015;DHT22;28637;50.554;7.032;2023-05-24T05:29:00;8.60;99.90
43015;DHT22;28637;50.554;7.032;2023-05-24T05:34:00;8.80;99.90
43015;DHT22;28637;50.554;7.032;2023-05-24T05:39:01;9.00;99.90
43015;DHT22;28637;50.554;7.032;2023-05-24T05:44:01;9.20;99.90
43015;DHT22;28637;50.554;7.032;2023-05-24T05:49:02;9.40;99.90
43015;DHT22;28637;50.554;7.032;2023-05-24T05:54:03;9.60;99.90
43015;DHT22;28637;50.554;7.032;2023-05-24T05:59:04;9.70;99.90
43015;DHT22;28637;50.554;7.032;2023-05-24T06:04:04;9.70;99.90
43015;DHT22;28637;50.554;7.032;2023-05-24T06:09:06;9.90;99.90
43015;DHT22;28637;50.554;7.032;2023-05-24T06:14:06;10.00;99.90
43015;DHT22;28637;50.554;7.032;2023-05-24T06:19:07;10.20;99.90
43015;DHT22;28637;50.554;7.032;2023-05-24T06:24:08;10.40;99.90
43015;DHT22;28637;50.554;7.032;2023-05-24T06:29:09;10.60;99.90
43015;DHT22;28637;50.554;7.032;2023-05-24T06:34:09;10.80;99.90
43015;DHT22;28637;50.554;7.032;2023-05-24T06:39:11;10.90;99.90
43015;DHT22;28637;50.554;7.032;2023-05-24T06:44:12;11.00;99.90
43015;DHT22;28637;50.554;7.032;2023-05-24T06:49:13;11.10;99.90
43015;DHT22;28637;50.554;7.032;2023-05-24T06:54:13;11.10;99.90
43015;DHT22;28637;50.554;7.032;2023-05-24T06:59:14;11.20;99.90
43015;DHT22;28637;50.554;7.032;2023-05-24T07:04:15;11.30;99.90
43015;DHT22;28637;50.554;7.032;2023-05-24T07:09:16;11.50;99.90
43015;DHT22;28637;50.554;7.032;2023-05-24T07:14:17;11.60;99.90
43015;DHT22;28637;50.554;7.032;2023-05-24T07:19:17;11.80;99.90
43015;DHT22;28637;50.554;7.032;2023-05-24T07:24:19;11.90;99.90
43015;DHT22;28637;50.554;7.032;2023-05-24T07:29:21;12.10;99.90
43015;DHT22;28637;50.554;7.032;2023-05-24T07:34:22;12.10;99.90
43015;DHT22;28637;50.554;7.032;2023-05-24T07:39:24;12.10;99.90
43015;DHT22;28637;50.554;7.032;2023-05-24T07:44:24;12.40;99.90
43015;DHT22;28637;50.554;7.032;2023-05-24T07:49:25;12.60;99.90
43015;DHT22;28637;50.554;7.032;2023-05-24T07:54:26;12.70;99.90
43015;DHT22;28637;50.554;7.032;2023-05-24T07:59:26;12.70;99.90
43015;DHT22;28637;50.554;7.032;2023-05-24T08:04:28;12.50;99.90
43015;DHT22;28637;50.554;7.032;2023-05-24T08:09:29;12.40;99.90
43015;DHT22;28637;50.554;7.032;2023-05-24T08:14:33;12.40;99.90
43015;DHT22;28637;50.554;7.032;2023-05-24T08:19:33;12.30;99.90
43015;DHT22;28637;50.554;7.032;2023-05-24T08:24:35;12.20;99.90
43015;DHT22;28637;50.554;7.032;2023-05-24T08:29:37;12.20;99.90
43015;DHT22;28637;50.554;7.032;2023-05-24T08:34:38;12.60;99.90
43015;DHT22;28637;50.554;7.032;2023-05-24T08:39:38;13.00;99.90
43015;DHT22;28637;50.554;7.032;2023-05-24T08:44:51;13.20;99.90
43015;DHT22;28637;50.554;7.032;2023-05-24T08:49:52;13.30;99.90
43015;DHT22;28637;50.554;7.032;2023-05-24T08:54:54;13.40;99.90
43015;DHT22;28637;50.554;7.032;2023-05-24T08:59:55;13.30;99.90
43015;DHT22;28637;50.554;7.032;2023-05-24T09:04:57;13.20;99.90
43015;DHT22;28637;50.554;7.032;2023-05-24T09:10:07;13.30;99.90
43015;DHT22;28637;50.554;7.032;2023-05-24T09:15:08;13.50;99.90
43015;DHT22;28637;50.554;7.032;2023-05-24T09:20:09;13.60;99.90
43015;DHT22;28637;50.554;7.032;2023-05-24T09:25:12;13.60;99.90
43015;DHT22;28637;50.554;7.032;2023-05-24T09:30:14;13.50;99.90
43015;DHT22;28637;50.554;7.032;2023-05-24T09:35:14;13.70;99.90
43015;DHT22;28637;50.554;7.032;2023-05-24T09:40:19;13.80;99.90
43015;DHT22;28637;50.554;7.032;2023-05-24T09:45:20;14.00;99.90
43015;DHT22;28637;50.554;7.032;2023-05-24T09:50:20;14.40;99.90
43015;DHT22;28637;50.554;7.032;2023-05-24T09:55:22;14.50;99.90
43015;DHT22;28637;50.554;7.032;2023-05-24T10:00:23;14.50;99.90
43015;DHT22;28637;50.554;7.032;2023-05-24T10:05:24;14.50;99.90
43015;DHT22;28637;50.554;7.032;2023-05-24T10:10:29;14.40;99.90
43015;DHT22;28637;50.554;7.032;2023-05-24T10:15:30;14.50;99.90
43015;DHT22;28637;50.554;7.032;2023-05-24T10:20:31;14.50;99.90
43015;DHT22;28637;50.554;7.032;2023-05-24T10:25:34;14.80;99.90
43015;DHT22;28637;50.554;7.032;2023-05-24T10:30:49;14.70;99.90
43015;DHT22;28637;50.554;7.032;2023-05-24T10:35:53;14.90;99.90
43015;DHT22;28637;50.554;7.032;2023-05-24T10:40:53;14.90;99.90
43015;DHT22;28637;50.554;7.032;2023-05-24T10:45:54;14.90;99.90
43015;DHT22;28637;50.554;7.032;2023-05-24T10:50:55;15.20;99.90
43015;DHT22;28637;50.554;7.032;2023-05-24T10:55:57;15.30;99.90
43015;DHT22;28637;50.554;7.032;2023-05-24T11:00:58;15.20;99.90
43015;DHT22;28637;50.554;7.032;2023-05-24T11:05:59;15.20;99.90
43015;DHT22;28637;50.554;7.032;2023-05-24T11:11:07;15.20;99.90
43015;DHT22;28637;50.554;7.032;2023-05-24T11:16:35;15.00;99.90
43015;DHT22;28637;50.554;7.032;2023-05-24T11:21:36;14.90;99.90
43015;DHT22;28637;50.554;7.032;2023-05-24T11:26:38;14.70;99.90
43015;DHT22;28637;50.554;7.032;2023-05-24T11:31:46;14.50;99.90
43015;DHT22;28637;50.554;7.032;2023-05-24T11:36:47;14.70;99.90
43015;DHT22;28637;50.554;7.032;2023-05-24T11:41:48;14.60;99.90
43015;DHT22;28637;50.554;7.032;2023-05-24T11:46:49;14.50;99.90
43015;DHT22;28637;50.554;7.032;2023-05-24T11:51:53;14.50;99.90
43015;DHT22;28637;50.554;7.032;2023-05-24T11:56:54;14.60;99.90
43015;DHT22;28637;50.554;7.032;2023-05-24T12:06:59;14.80;99.90
43015;DHT22;28637;50.554;7.032;2023-05-24T12:12:00;14.80;99.90
43015;DHT22;28637;50.554;7.032;2023-05-24T12:17:01;14.50;99.90
43015;DHT22;28637;50.554;7.032;2023-05-24T12:22:05;14.50;99.90
43015;DHT22;28637;50.554;7.032;2023-05-24T12:27:07;14.40;99.90
43015;DHT22;28637;50.554;7.032;2023-05-24T12:32:09;14.60;99.90
43015;DHT22;28637;50.554;7.032;2023-05-24T12:37:13;14.80;99.90
43015;DHT22;28637;50.554;7.032;2023-05-24T12:42:14;14.80;99.90
43015;DHT22;28637;50.554;7.032;2023-05-24T12:47:15;14.70;99.90
43015;DHT22;28637;50.554;7.032;2023-05-24T12:52:16;14.60;99.90
43015;DHT22;28637;50.554;7.032;2023-05-24T12:57:16;14.30;99.90
43015;DHT22;28637;50.554;7.032;2023-05-24T13:02:17;14.10;99.90
43015;DHT22;28637;50.554;7.032;2023-05-24T13:07:19;14.00;99.90
43015;DHT22;28637;50.554;7.032;2023-05-24T13:12:20;13.80;99.90
43015;DHT22;28637;50.554;7.032;2023-05-24T13:17:20;13.70;99.90
43015;DHT22;28637;50.554;7.032;2023-05-24T13:22:21;13.60;99.90
43015;DHT22;28637;50.554;7.032;2023-05-24T13:27:22;13.50;99.90
43015;DHT22;28637;50.554;7.032;2023-05-24T13:32:22;13.50;99.90
43015;DHT22;28637;50.554;7.032;2023-05-24T13:37:23;13.60;99.90
43015;DHT22;28637;50.554;7.032;2023-05-24T13:42:24;13.70;99.90
43015;DHT22;28637;50.554;7.032;2023-05-24T13:47:25;13.70;99.90
43015;DHT22;28637;50.554;7.032;2023-05-24T13:52:25;13.90;99.90
43015;DHT22;28637;50.554;7.032;2023-05-24T13:57:26;14.00;99.90
43015;DHT22;28637;50.554;7.032;2023-05-24T14:02:27;14.00;99.90
43015;DHT22;28637;50.554;7.032;2023-05-24T14:07:28;14.10;99.90
43015;DHT22;28637;50.554;7.032;2023-05-24T14:12:28;14.20;99.90
43015;DHT22;28637;50.554;7.032;2023-05-24T14:17:31;14.30;99.90
43015;DHT22;28637;50.554;7.032;2023-05-24T14:22:31;14.40;99.90
43015;DHT22;28637;50.554;7.032;2023-05-24T14:27:32;14.60;99.90
43015;DHT22;28637;50.554;7.032;2023-05-24T14:32:32;14.80;99.90
43015;DHT22;28637;50.554;7.032;2023-05-24T14:37:33;14.80;99.90
43015;DHT22;28637;50.554;7.032;2023-05-24T14:42:34;15.10;99.90
43015;DHT22;28637;50.554;7.032;2023-05-24T14:47:34;15.20;99.90
43015;DHT22;28637;50.554;7.032;2023-05-24T14:52:35;15.10;99.90
43015;DHT22;28637;50.554;7.032;2023-05-24T14:57:36;14.90;99.90
43015;DHT22;28637;50.554;7.032;2023-05-24T15:02:37;15.00;99.90
43015;DHT22;28637;50.554;7.032;2023-05-24T15:07:37;15.10;99.90
43015;DHT22;28637;50.554;7.032;2023-05-24T15:12:38;15.00;99.90
43015;DHT22;28637;50.554;7.032;2023-05-24T15:17:38;15.00;99.90
43015;DHT22;28637;50.554;7.032;2023-05-24T15:22:39;15.20;99.90
43015;DHT22;28637;50.554;7.032;2023-05-24T15:27:40;15.40;99.90
43015;DHT22;28637;50.554;7.032;2023-05-24T15:32:40;15.50;99.90
43015;DHT22;28637;50.554;7.032;2023-05-24T15:37:41;15.80;99.90
43015;DHT22;28637;50.554;7.032;2023-05-24T15:42:42;16.20;99.90
43015;DHT22;28637;50.554;7.032;2023-05-24T15:47:42;17.00;99.90
43015;DHT22;28637;50.554;7.032;2023-05-24T15:52:43;17.70;99.90
43015;DHT22;28637;50.554;7.032;2023-05-24T15:57:44;17.90;99.80
43015;DHT22;28637;50.554;7.032;2023-05-24T16:02:44;18.40;99.90
43015;DHT22;28637;50.554;7.032;2023-05-24T16:07:45;18.40;97.20
43015;DHT22;28637;50.554;7.032;2023-05-24T16:12:45;18.20;97.80
43015;DHT22;28637;50.554;7.032;2023-05-24T16:17:46;18.20;98.10
43015;DHT22;28637;50.554;7.032;2023-05-24T16:22:47;18.20;96.90
43015;DHT22;28637;50.554;7.032;2023-05-24T16:27:51;17.70;96.00
43015;DHT22;28637;50.554;7.032;2023-05-24T16:32:52;17.10;97.50
43015;DHT22;28637;50.554;7.032;2023-05-24T16:37:52;16.80;98.10
43015;DHT22;28637;50.554;7.032;2023-05-24T16:42:55;16.40;99.00
43015;DHT22;28637;50.554;7.032;2023-05-24T16:47:56;16.10;99.30
43015;DHT22;28637;50.554;7.032;2023-05-24T16:52:56;16.00;99.70
43015;DHT22;28637;50.554;7.032;2023-05-24T16:57:57;15.90;99.90
43015;DHT22;28637;50.554;7.032;2023-05-24T17:02:57;15.70;99.90
43015;DHT22;28637;50.554;7.032;2023-05-24T17:07:59;15.50;99.90
43015;DHT22;28637;50.554;7.032;2023-05-24T17:12:59;15.40;99.90
43015;DHT22;28637;50.554;7.032;2023-05-24T17:18:00;15.20;99.90
43015;DHT22;28637;50.554;7.032;2023-05-24T17:23:01;15.00;99.90
43015;DHT22;28637;50.554;7.032;2023-05-24T17:28:02;14.90;99.90
43015;DHT22;28637;50.554;7.032;2023-05-24T17:33:02;14.80;99.90
43015;DHT22;28637;50.554;7.032;2023-05-24T17:38:03;14.90;99.90
43015;DHT22;28637;50.554;7.032;2023-05-24T17:43:04;14.80;99.90
43015;DHT22;28637;50.554;7.032;2023-05-24T17:48:05;14.60;99.90
43015;DHT22;28637;50.554;7.032;2023-05-24T17:53:06;14.50;99.90
43015;DHT22;28637;50.554;7.032;2023-05-24T17:58:07;14.50;99.90
43015;DHT22;28637;50.554;7.032;2023-05-24T18:03:07;14.40;99.90
43015;DHT22;28637;50.554;7.032;2023-05-24T18:08:08;14.40;99.90
43015;DHT22;28637;50.554;7.032;2023-05-24T18:13:09;14.40;99.90
43015;DHT22;28637;50.554;7.032;2023-05-24T18:18:09;14.40;99.90
43015;DHT22;28637;50.554;7.032;2023-05-24T18:23:10;14.30;99.90
43015;DHT22;28637;50.554;7.032;2023-05-24T18:28:11;14.20;99.90
43015;DHT22;28637;50.554;7.032;2023-05-24T18:33:12;14.00;99.90
43015;DHT22;28637;50.554;7.032;2023-05-24T18:38:12;14.00;99.90
43015;DHT22;28637;50.554;7.032;2023-05-24T18:43:13;13.80;99.90
43015;DHT22;28637;50.554;7.032;2023-05-24T18:48:14;13.70;99.90
43015;DHT22;28637;50.554;7.032;2023-05-24T18:53:14;13.60;99.90
43015;DHT22;28637;50.554;7.032;2023-05-24T18:58:15;13.50;99.90
43015;DHT22;28637;50.554;7.032;2023-05-24T19:03:15;13.40;99.90
43015;DHT22;28637;50.554;7.032;2023-05-24T19:08:16;13.30;99.90
43015;DHT22;28637;50.554;7.032;2023-05-24T19:13:17;13.20;99.90
43015;DHT22;28637;50.554;7.032;2023-05-24T19:18:18;13.10;99.90
43015;DHT22;28637;50.554;7.032;2023-05-24T19:23:19;12.90;99.90
43015;DHT22;28637;50.554;7.032;2023-05-24T19:28:20;12.90;99.90
43015;DHT22;28637;50.554;7.032;2023-05-24T19:33:21;12.90;99.90
43015;DHT22;28637;50.554;7.032;2023-05-24T19:38:21;12.80;99.90
43015;DHT22;28637;50.554;7.032;2023-05-24T19:43:22;12.70;99.90
43015;DHT22;28637;50.554;7.032;2023-05-24T19:48:23;12.70;99.90
43015;DHT22;28637;50.554;7.032;2023-05-24T19:53:26;12.50;99.90
43015;DHT22;28637;50.554;7.032;2023-05-24T19:58:27;12.50;99.90
43015;DHT22;28637;50.554;7.032;2023-05-24T20:03:29;12.40;99.90
43015;DHT22;28637;50.554;7.032;2023-05-24T20:08:29;12.20;99.90
43015;DHT22;28637;50.554;7.032;2023-05-24T20:13:30;12.00;99.90
43015;DHT22;28637;50.554;7.032;2023-05-24T20:18:31;11.80;99.90
43015;DHT22;28637;50.554;7.032;2023-05-24T20:23:35;11.40;99.90
43015;DHT22;28637;50.554;7.032;2023-05-24T20:28:35;11.00;99.90
43015;DHT22;28637;50.554;7.032;2023-05-24T20:33:37;10.80;99.90
43015;DHT22;28637;50.554;7.032;2023-05-24T20:38:38;10.50;99.90
43015;DHT22;28637;50.554;7.032;2023-05-24T20:43:38;10.40;99.90
43015;DHT22;28637;50.554;7.032;2023-05-24T20:48:39;10.40;99.90
43015;DHT22;28637;50.554;7.032;2023-05-24T20:53:41;10.30;99.90
43015;DHT22;28637;50.554;7.032;2023-05-24T20:58:42;10.30;99.90
43015;DHT22;28637;50.554;7.032;2023-05-24T21:03:44;10.30;99.90
43015;DHT22;28637;50.554;7.032;2023-05-24T21:08:45;10.40;99.90
43015;DHT22;28637;50.554;7.032;2023-05-24T21:13:45;10.40;99.90
43015;DHT22;28637;50.554;7.032;2023-05-24T21:18:46;10.40;99.90
43015;DHT22;28637;50.554;7.032;2023-05-24T21:23:46;10.30;99.90
43015;DHT22;28637;50.554;7.032;2023-05-24T21:28:47;10.20;99.90
43015;DHT22;28637;50.554;7.032;2023-05-24T21:33:48;10.10;99.90
43015;DHT22;28637;50.554;7.032;2023-05-24T21:38:49;10.10;99.90
43015;DHT22;28637;50.554;7.032;2023-05-24T21:43:50;9.90;99.90
43015;DHT22;28637;50.554;7.032;2023-05-24T21:48:50;9.70;99.90
43015;DHT22;28637;50.554;7.032;2023-05-24T21:53:52;9.50;99.90
43015;DHT22;28637;50.554;7.032;2023-05-24T21:58:53;9.30;99.90
43015;DHT22;28637;50.554;7.032;2023-05-24T22:03:53;9.10;99.90
43015;DHT22;28637;50.554;7.032;2023-05-24T22:08:54;9.00;99.90
43015;DHT22;28637;50.554;7.032;2023-05-24T22:13:59;8.80;99.90
43015;DHT22;28637;50.554;7.032;2023-05-24T22:18:59;8.70;99.90
43015;DHT22;28637;50.554;7.032;2023-05-24T22:24:02;8.60;99.90
43015;DHT22;28637;50.554;7.032;2023-05-24T22:29:03;8.60;99.90
43015;DHT22;28637;50.554;7.032;2023-05-24T22:34:04;8.60;99.90
43015;DHT22;28637;50.554;7.032;2023-05-24T22:39:05;8.50;99.90
43015;DHT22;28637;50.554;7.032;2023-05-24T22:44:05;8.40;99.90
43015;DHT22;28637;50.554;7.032;2023-05-24T22:49:06;8.30;99.90
43015;DHT22;28637;50.554;7.032;2023-05-24T22:54:06;8.30;99.90
43015;DHT22;28637;50.554;7.032;2023-05-24T22:59:07;8.20;99.90
43015;DHT22;28637;50.554;7.032;2023-05-24T23:04:08;8.20;99.90
43015;DHT22;28637;50.554;7.032;2023-05-24T23:09:09;8.00;99.90
43015;DHT22;28637;50.554;7.032;2023-05-24T23:14:09;8.00;99.90
43015;DHT22;28637;50.554;7.032;2023-05-24T23:19:10;7.90;99.90
43015;DHT22;28637;50.554;7.032;2023-05-24T23:24:13;7.80;99.90
43015;DHT22;28637;50.554;7.032;2023-05-24T23:29:15;7.70;99.90
43015;DHT22;28637;50.554;7.032;2023-05-24T23:34:15;7.50;99.90
43015;DHT22;28637;50.554;7.032;2023-05-24T23:39:16;7.50;99.90
43015;DHT22;28637;50.554;7.032;2023-05-24T23:44:17;7.30;99.90
43015;DHT22;28637;50.554;7.032;2023-05-24T23:49:18;7.30;99.90
43015;DHT22;28637;50.554;7.032;2023-05-24T23:54:19;7.30;99.90
43015;DHT22;28637;50.554;7.032;2023-05-24T23:59:20;7.30;99.90
